Time;durP1;ratioP1;P1;durP2;ratioP2;P2;SDS_P1;SDS_P2;PMS_P1;PMS_P2;Temp;Humidity;BMP_temperature;BMP_pressure;BME280_temperature;BME280_humidity;BME280_pressure;Samples;Min_cycle;Max_cycle;Signal;HPM_P1;HPM_P2
2022/02/05 00:00:43;;;;;;;1.42;0.40;;;;;;;;;;4974216;28;20078;-67
2022/02/05 00:05:35;;;;;;;4.28;1.38;;;;;;;;;;4989382;28;20101;-66
2022/02/05 00:11:08;;;;;;;1.23;0.70;;;;;;;;;;4974339;28;20418;-66
2022/02/05 00:43:09;;;;;;;2.17;0.70;;;;;;;;;;4975050;28;20078;-67
2022/02/05 00:45:40;;;;;;;1.02;0.90;;;;;;;;;;4975978;28;20105;-67
2022/02/05 00:48:08;;;;;;;1.90;0.90;;;;;;;;;;4976775;28;20047;-67
2022/02/05 00:50:38;;;;;;;2.63;1.38;;;;;;;;;;4976781;28;20505;-66
2022/02/05 00:55:38;;;;;;;3.28;1.10;;;;;;;;;;4977963;28;20074;-67
2022/02/05 00:58:06;;;;;;;4.25;1.30;;;;;;;;;;4980518;28;20047;-67
2022/02/05 01:00:34;;;;;;;1.02;0.90;;;;;;;;;;4979076;28;20617;-67
2022/02/05 01:03:01;;;;;;;3.20;1.10;;;;;;;;;;4978568;28;20055;-68
2022/02/05 01:05:28;;;;;;;2.00;0.95;;;;;;;;;;4979029;28;20074;-67
2022/02/05 01:07:57;;;;;;;1.83;1.13;;;;;;;;;;4979522;28;20050;-67
2022/02/05 01:10:25;;;;;;;4.55;1.30;;;;;;;;;;4973825;28;20110;-67
2022/02/05 01:12:57;;;;;;;1.30;0.93;;;;;;;;;;4973126;28;20058;-66
2022/02/05 01:15:28;;;;;;;6.85;1.55;;;;;;;;;;4973498;28;20105;-67
2022/02/05 01:18:02;;;;;;;1.20;0.80;;;;;;;;;;4973063;28;20443;-67
2022/02/05 01:23:17;;;;;;;3.38;1.52;;;;;;;;;;4971802;28;20133;-66
2022/02/05 01:25:51;;;;;;;4.18;1.42;;;;;;;;;;4973269;28;20078;-67
2022/02/05 01:28:24;;;;;;;13.35;5.55;;;;;;;;;;4973088;28;20089;-66
2022/02/05 01:30:54;;;;;;;;;;;;;;;;;;4973535;28;20070;-68
2022/02/05 01:36:27;;;;;;;5.63;1.65;;;;;;;;;;4972890;28;20125;-67
2022/02/05 01:55:31;;;;;;;5.72;1.40;;;;;;;;;;4979088;28;20058;-67
2022/02/05 02:09:59;;;;;;;6.85;1.50;;;;;;;;;;4979228;28;20573;-67
2022/02/05 02:12:37;;;;;;;4.10;1.10;;;;;;;;;;4978942;28;20054;-67
2022/02/05 02:15:14;;;;;;;2.17;1.10;;;;;;;;;;4978779;28;20051;-67
2022/02/05 02:18:14;;;;;;;3.80;1.08;;;;;;;;;;4979028;28;20086;-67
2022/02/05 02:24:25;;;;;;;2.15;1.15;;;;;;;;;;4949469;28;20050;-67
2022/02/05 02:29:32;;;;;;;4.67;1.80;;;;;;;;;;4975402;28;20083;-67
2022/02/05 02:31:59;;;;;;;3.90;1.20;;;;;;;;;;4978707;28;20290;-67
2022/02/05 02:34:31;;;;;;;3.55;1.23;;;;;;;;;;4978898;28;20054;-67
2022/02/05 02:37:08;;;;;;;2.88;1.00;;;;;;;;;;4978836;28;20105;-67
2022/02/05 02:40:04;;;;;;;3.88;1.10;;;;;;;;;;4978024;28;20051;-67
2022/02/05 02:42:25;;;;;;;3.78;1.10;;;;;;;;;;4978597;28;20097;-66
2022/02/05 02:44:51;;;;;;;5.20;1.08;;;;;;;;;;4978835;28;20105;-66
2022/02/05 02:47:18;;;;;;;3.05;1.20;;;;;;;;;;4978702;28;20105;-67
2022/02/05 02:50:00;;;;;;;3.95;1.55;;;;;;;;;;4977435;28;20055;-67
2022/02/05 02:58:01;;;;;;;4.82;1.30;;;;;;;;;;5025095;23;20042;-67
2022/02/05 03:00:28;;;;;;;5.53;1.33;;;;;;;;;;4995096;28;20046;-69
2022/02/05 03:02:54;;;;;;;4.03;1.27;;;;;;;;;;4994705;28;20567;-69
2022/02/05 03:05:22;;;;;;;4.75;1.40;;;;;;;;;;4995059;28;20058;-69
2022/02/05 03:07:48;;;;;;;3.85;1.10;;;;;;;;;;4994810;28;20046;-69
2022/02/05 03:10:15;;;;;;;4.70;1.77;;;;;;;;;;4994204;28;20377;-69
2022/02/05 03:12:44;;;;;;;5.72;1.40;;;;;;;;;;4994616;28;20054;-70
2022/02/05 03:15:14;;;;;;;1.55;1.45;;;;;;;;;;4994775;28;20398;-69
2022/02/05 03:17:53;;;;;;;3.63;1.40;;;;;;;;;;4994774;28;20046;-69
2022/02/05 03:20:20;;;;;;;5.60;1.77;;;;;;;;;;4994563;28;20093;-69
2022/02/05 03:22:46;;;;;;;4.15;1.45;;;;;;;;;;5003398;28;20471;-69
2022/02/05 03:25:13;;;;;;;6.05;2.05;;;;;;;;;;5014082;28;20488;-69
2022/02/05 03:27:40;;;;;;;3.92;1.60;;;;;;;;;;5014074;28;20046;-69
2022/02/05 03:30:07;;;;;;;3.08;1.67;;;;;;;;;;5014119;28;20100;-69
2022/02/05 03:32:33;;;;;;;2.72;1.67;;;;;;;;;;5009588;28;20100;-69
2022/02/05 03:35:00;;;;;;;3.45;1.73;;;;;;;;;;5013749;28;20104;-69
2022/02/05 03:37:26;;;;;;;2.50;1.58;;;;;;;;;;5013789;28;20049;-69
2022/02/05 03:39:53;;;;;;;2.28;1.45;;;;;;;;;;5013892;28;20089;-69
2022/02/05 03:42:19;;;;;;;2.47;1.42;;;;;;;;;;5013747;28;20096;-69
2022/02/05 03:44:46;;;;;;;3.75;1.67;;;;;;;;;;5004589;28;20120;-69
2022/02/05 03:47:12;;;;;;;6.40;1.90;;;;;;;;;;4993963;28;20054;-69
2022/02/05 03:49:39;;;;;;;4.80;1.65;;;;;;;;;;4994141;28;20548;-69
2022/02/05 03:52:06;;;;;;;3.55;1.77;;;;;;;;;;4993924;28;20046;-68
2022/02/05 03:54:34;;;;;;;4.53;1.65;;;;;;;;;;4993942;28;20425;-69
2022/02/05 03:57:01;;;;;;;1.98;1.70;;;;;;;;;;5004248;28;20096;-68
2022/02/05 03:59:28;;;;;;;4.95;1.77;;;;;;;;;;5014720;28;20073;-69
2022/02/05 04:01:55;;;;;;;4.32;1.58;;;;;;;;;;5013100;28;20050;-69
2022/02/05 04:04:22;;;;;;;4.35;1.55;;;;;;;;;;5013341;28;20108;-69
2022/02/05 04:06:49;;;;;;;2.50;1.63;;;;;;;;;;5013383;28;20108;-69
2022/02/05 04:09:21;;;;;;;3.45;1.77;;;;;;;;;;5002526;28;20054;-69
2022/02/05 04:17:02;;;;;;;5.75;1.70;;;;;;;;;;4992407;28;20101;-69
2022/02/05 04:19:28;;;;;;;3.83;1.80;;;;;;;;;;4993445;28;20054;-69
2022/02/05 04:21:55;;;;;;;3.17;1.70;;;;;;;;;;5011243;28;20393;-70
2022/02/05 04:24:22;;;;;;;3.50;1.60;;;;;;;;;;5012728;28;20077;-69
2022/02/05 04:26:48;;;;;;;4.85;1.85;;;;;;;;;;5013063;28;20045;-69
2022/02/05 04:29:15;;;;;;;3.30;1.70;;;;;;;;;;5013030;28;20088;-69
2022/02/05 04:31:41;;;;;;;2.78;1.80;;;;;;;;;;4997640;28;20047;-69
2022/02/05 04:34:09;;;;;;;2.13;1.35;;;;;;;;;;4993152;28;20046;-69
2022/02/05 04:36:36;;;;;;;2.90;1.58;;;;;;;;;;4993486;28;20058;-69
2022/02/05 04:39:12;;;;;;;4.97;1.80;;;;;;;;;;4993027;28;20049;-69
2022/02/05 04:41:46;;;;;;;4.15;1.85;;;;;;;;;;4992940;28;20486;-69
2022/02/05 04:53:17;;;;;;;2.58;1.50;;;;;;;;;;4993133;28;20046;-69
2022/02/05 04:57:55;;;;;;;4.53;1.70;;;;;;;;;;4992972;28;20081;-69
2022/02/05 05:06:00;;;;;;;4.28;1.73;;;;;;;;;;4992662;28;20077;-69
2022/02/05 05:08:40;;;;;;;6.30;2.10;;;;;;;;;;4996025;28;20053;-69
2022/02/05 05:11:34;;;;;;;3.15;1.58;;;;;;;;;;4992600;28;20093;-69
2022/02/05 05:22:00;;;;;;;3.05;1.73;;;;;;;;;;4992328;28;20089;-69
2022/02/05 05:24:27;;;;;;;3.58;1.73;;;;;;;;;;4992650;28;20050;-69
2022/02/05 05:26:54;;;;;;;5.63;2.30;;;;;;;;;;4992347;28;20085;-69
2022/02/05 05:29:20;;;;;;;4.22;1.67;;;;;;;;;;4992653;28;20489;-69
2022/02/05 05:31:47;;;;;;;4.70;1.67;;;;;;;;;;4991980;28;20054;-69
2022/02/05 05:34:14;;;;;;;4.22;1.70;;;;;;;;;;4992358;28;20058;-69
2022/02/05 05:36:40;;;;;;;5.25;1.73;;;;;;;;;;4992308;28;20085;-69
2022/02/05 05:39:09;;;;;;;2.80;1.65;;;;;;;;;;4992316;28;20054;-69
2022/02/05 05:41:37;;;;;;;3.90;1.60;;;;;;;;;;4992262;28;20093;-69
2022/02/05 05:46:42;;;;;;;3.83;1.70;;;;;;;;;;4992300;28;20050;-69
2022/02/05 05:51:38;;;;;;;6.10;1.95;;;;;;;;;;4992161;28;20417;-69
2022/02/05 05:54:05;;;;;;;4.68;1.98;;;;;;;;;;4991806;28;20051;-69
2022/02/05 05:56:33;;;;;;;3.08;1.65;;;;;;;;;;4992406;28;20394;-69
2022/02/05 05:59:01;;;;;;;3.97;1.95;;;;;;;;;;4991833;28;20054;-69
2022/02/05 06:01:27;;;;;;;4.68;1.50;;;;;;;;;;4992220;28;20084;-69
2022/02/05 06:03:54;;;;;;;3.63;2.00;;;;;;;;;;4990853;28;20402;-69
2022/02/05 06:06:21;;;;;;;4.40;1.50;;;;;;;;;;4992217;28;20476;-69
2022/02/05 06:08:47;;;;;;;4.22;1.92;;;;;;;;;;4992179;28;20054;-70
2022/02/05 06:11:14;;;;;;;5.50;2.22;;;;;;;;;;4992156;28;20050;-69
2022/02/05 06:13:41;;;;;;;2.85;1.70;;;;;;;;;;4991969;28;20101;-69
2022/02/05 06:16:12;;;;;;;3.80;1.85;;;;;;;;;;4992203;28;20633;-69
2022/02/05 06:18:38;;;;;;;4.22;1.70;;;;;;;;;;4992011;28;20051;-69
2022/02/05 06:21:05;;;;;;;3.22;1.70;;;;;;;;;;4992438;28;20046;-69
2022/02/05 06:23:32;;;;;;;3.08;1.50;;;;;;;;;;4991863;28;20050;-69
2022/02/05 06:25:58;;;;;;;7.70;2.10;;;;;;;;;;4993858;28;20054;-70
2022/02/05 06:28:25;;;;;;;4.60;1.90;;;;;;;;;;4995924;28;20050;-70
2022/02/05 06:30:52;;;;;;;4.00;2.10;;;;;;;;;;4996294;28;20565;-69
2022/02/05 06:33:18;;;;;;;2.55;1.50;;;;;;;;;;4995571;28;20050;-69
2022/02/05 06:35:45;;;;;;;2.20;1.30;;;;;;;;;;4996276;28;20055;-69
2022/02/05 06:38:11;;;;;;;2.50;1.85;;;;;;;;;;4995803;28;20054;-69
2022/02/05 06:40:38;;;;;;;3.20;1.98;;;;;;;;;;4995685;28;20472;-69
2022/02/05 06:43:10;;;;;;;4.30;1.52;;;;;;;;;;4995029;28;20046;-69
2022/02/05 06:45:36;;;;;;;4.80;1.80;;;;;;;;;;4994822;28;20058;-69
2022/02/05 06:48:03;;;;;;;1.75;1.40;;;;;;;;;;4995079;28;20080;-69
2022/02/05 06:50:30;;;;;;;3.85;1.70;;;;;;;;;;4995363;28;20472;-69
2022/02/05 06:52:56;;;;;;;4.05;1.88;;;;;;;;;;4994892;28;20081;-69
2022/02/05 06:55:23;;;;;;;4.22;1.67;;;;;;;;;;4995174;28;20054;-69
2022/02/05 06:57:49;;;;;;;5.75;1.90;;;;;;;;;;4994815;28;20058;-69
2022/02/05 07:00:16;;;;;;;6.47;2.47;;;;;;;;;;4995132;28;20054;-69
2022/02/05 07:02:43;;;;;;;3.20;1.90;;;;;;;;;;4994794;28;20042;-69
2022/02/05 07:05:10;;;;;;;4.00;1.80;;;;;;;;;;4982215;28;20101;-68
2022/02/05 07:07:38;;;;;;;2.95;1.67;;;;;;;;;;4990085;28;20046;-68
2022/02/05 07:10:07;;;;;;;6.35;2.40;;;;;;;;;;4992030;28;20066;-68
2022/02/05 07:12:40;;;;;;;4.38;1.65;;;;;;;;;;4991169;28;20083;-69
2022/02/05 07:15:16;;;;;;;6.72;2.08;;;;;;;;;;4990999;28;20085;-69
2022/02/05 07:17:52;;;;;;;5.88;2.22;;;;;;;;;;4991766;28;20092;-69
2022/02/05 07:20:39;;;;;;;5.60;2.47;;;;;;;;;;4991169;28;20559;-69
2022/02/05 07:23:56;;;;;;;7.00;2.38;;;;;;;;;;4990884;28;20046;-68
2022/02/05 07:31:26;;;;;;;7.28;2.50;;;;;;;;;;4992005;28;20062;-68
2022/02/05 07:33:53;;;;;;;6.82;1.98;;;;;;;;;;4992118;28;20473;-68
2022/02/05 07:36:19;;;;;;;7.53;1.65;;;;;;;;;;4991806;28;20105;-68
2022/02/05 07:38:46;;;;;;;3.33;1.45;;;;;;;;;;4989647;28;20062;-69
2022/02/05 07:41:13;;;;;;;3.05;1.85;;;;;;;;;;4991451;28;20417;-68
2022/02/05 07:43:40;;;;;;;2.67;1.80;;;;;;;;;;4990941;28;20512;-68
2022/02/05 07:46:09;;;;;;;5.28;3.30;;;;;;;;;;4990814;28;20057;-69
2022/02/05 07:48:35;;;;;;;3.10;1.65;;;;;;;;;;4990746;28;20093;-68
2022/02/05 07:51:02;;;;;;;4.03;2.10;;;;;;;;;;4990609;28;20046;-68
2022/02/05 07:53:30;;;;;;;3.28;2.00;;;;;;;;;;4990155;28;20062;-67
2022/02/05 07:55:58;;;;;;;4.63;1.73;;;;;;;;;;4964962;28;20054;-70
2022/02/05 07:58:24;;;;;;;5.82;1.95;;;;;;;;;;4989728;28;20116;-70
2022/02/05 08:00:52;;;;;;;4.78;2.00;;;;;;;;;;4990977;28;20104;-69
2022/02/05 08:03:18;;;;;;;7.10;2.33;;;;;;;;;;4990529;28;20104;-74
2022/02/05 08:05:45;;;;;;;4.38;1.80;;;;;;;;;;4975834;28;20675;-68
2022/02/05 08:08:15;;;;;;;5.95;2.67;;;;;;;;;;4990226;28;20104;-69
2022/02/05 08:10:54;;;;;;;7.53;1.92;;;;;;;;;;4990320;28;20050;-70
2022/02/05 08:13:30;;;;;;;3.80;1.60;;;;;;;;;;4989751;28;20110;-71
2022/02/05 08:16:08;;;;;;;3.38;1.55;;;;;;;;;;4990214;28;20058;-69
2022/02/05 08:18:37;;;;;;;3.97;1.60;;;;;;;;;;4988682;28;20182;-69
2022/02/05 08:21:04;;;;;;;5.88;1.60;;;;;;;;;;4990796;28;20050;-69
2022/02/05 08:23:33;;;;;;;5.65;1.85;;;;;;;;;;4990004;28;20042;-71
2022/02/05 08:26:00;;;;;;;3.05;1.75;;;;;;;;;;4990957;28;20050;-71
2022/02/05 08:28:28;;;;;;;3.83;2.00;;;;;;;;;;4992383;28;20050;-69
2022/02/05 08:30:55;;;;;;;5.47;2.85;;;;;;;;;;5003694;28;20053;-70
2022/02/05 08:33:22;;;;;;;3.83;1.75;;;;;;;;;;5011621;28;20100;-69
2022/02/05 08:35:50;;;;;;;3.97;1.80;;;;;;;;;;5013507;28;20417;-69
2022/02/05 08:38:17;;;;;;;3.13;1.85;;;;;;;;;;5013106;28;20058;-69
2022/02/05 08:40:44;;;;;;;4.50;1.80;;;;;;;;;;5013051;28;20492;-69
2022/02/05 08:43:11;;;;;;;1.83;1.38;;;;;;;;;;5009954;28;20089;-69
2022/02/05 08:45:38;;;;;;;5.15;1.77;;;;;;;;;;4993537;28;20046;-69
2022/02/05 08:48:07;;;;;;;5.60;1.60;;;;;;;;;;4992830;28;20057;-69
2022/02/05 08:50:34;;;;;;;5.63;1.80;;;;;;;;;;4993424;28;20101;-69
2022/02/05 08:53:04;;;;;;;4.75;1.90;;;;;;;;;;4976585;28;20416;-69
2022/02/05 08:55:32;;;;;;;4.35;2.03;;;;;;;;;;4992286;28;20101;-69
2022/02/05 08:58:01;;;;;;;3.83;1.77;;;;;;;;;;4987544;28;20411;-69
2022/02/05 09:00:28;;;;;;;3.33;1.60;;;;;;;;;;4973618;28;20078;-69
2022/02/05 09:03:03;;;;;;;2.38;1.63;;;;;;;;;;4973574;28;20399;-69
2022/02/05 09:07:57;;;;;;;5.75;1.80;;;;;;;;;;4973298;28;20070;-69
2022/02/05 09:10:31;;;;;;;5.05;1.73;;;;;;;;;;4975867;28;20104;-69
2022/02/05 09:13:13;;;;;;;5.25;2.33;;;;;;;;;;4992596;28;20054;-69
2022/02/05 09:15:41;;;;;;;4.63;1.40;;;;;;;;;;4993071;28;20399;-69
2022/02/05 09:18:08;;;;;;;5.13;1.50;;;;;;;;;;4992487;28;20109;-70
2022/02/05 09:20:34;;;;;;;5.03;1.80;;;;;;;;;;4992697;28;20108;-69
2022/02/05 09:23:01;;;;;;;6.18;1.60;;;;;;;;;;4992323;28;20093;-69
2022/02/05 09:25:29;;;;;;;5.43;1.67;;;;;;;;;;4992809;28;20050;-69
2022/02/05 09:27:56;;;;;;;5.15;1.42;;;;;;;;;;4991405;28;20050;-69
2022/02/05 09:30:31;;;;;;;7.55;2.08;;;;;;;;;;4992738;28;20058;-69
2022/02/05 09:32:57;;;;;;;4.25;1.23;;;;;;;;;;4992417;28;20548;-69
2022/02/05 09:35:24;;;;;;;12.77;1.38;;;;;;;;;;4984238;28;20050;-69
2022/02/05 09:37:50;;;;;;;8.35;1.77;;;;;;;;;;4992508;28;20113;-69
2022/02/05 09:40:17;;;;;;;9.82;1.10;;;;;;;;;;4992586;28;20146;-69
2022/02/05 09:42:47;;;;;;;7.30;1.67;;;;;;;;;;4993352;28;20065;-69
2022/02/05 09:45:14;;;;;;;3.95;1.50;;;;;;;;;;4996040;28;20473;-69
2022/02/05 09:47:45;;;;;;;5.68;2.10;;;;;;;;;;4997720;28;20082;-69
2022/02/05 09:50:12;;;;;;;5.43;1.30;;;;;;;;;;5001543;28;20061;-69
2022/02/05 09:52:40;;;;;;;6.90;1.60;;;;;;;;;;5007209;28;20071;-69
2022/02/05 09:55:10;;;;;;;5.00;1.00;;;;;;;;;;5004256;28;20074;-69
2022/02/05 09:57:37;;;;;;;4.97;1.30;;;;;;;;;;5008961;28;20073;-70
2022/02/05 10:00:04;;;;;;;8.98;2.72;;;;;;;;;;4999673;28;20050;-69
2022/02/05 10:02:36;;;;;;;5.47;2.25;;;;;;;;;;4989184;28;20049;-70
2022/02/05 10:05:09;;;;;;;12.05;3.22;;;;;;;;;;4994968;28;20047;-70
2022/02/05 10:08:07;;;;;;;10.80;3.30;;;;;;;;;;4989247;28;20082;-70
2022/02/05 10:10:46;;;;;;;8.30;1.55;;;;;;;;;;4998144;28;20102;-70
2022/02/05 10:13:16;;;;;;;5.75;1.20;;;;;;;;;;5006091;28;20073;-71
2022/02/05 10:15:43;;;;;;;5.20;1.45;;;;;;;;;;4977368;28;20051;-70
2022/02/05 10:18:43;;;;;;;5.03;1.30;;;;;;;;;;4991594;28;20506;-70
2022/02/05 10:21:27;;;;;;;7.20;1.58;;;;;;;;;;4976807;28;20050;-70
2022/02/05 10:24:09;;;;;;;4.70;1.27;;;;;;;;;;4976492;28;20046;-73
2022/02/05 10:26:37;;;;;;;8.02;1.40;;;;;;;;;;4986995;28;20058;-70
2022/02/05 10:29:12;;;;;;;3.05;1.20;;;;;;;;;;4973389;28;20489;-73
2022/02/05 10:32:10;;;;;;;8.82;1.40;;;;;;;;;;4990936;28;20448;-73
2022/02/05 10:35:00;;;;;;;4.55;1.20;;;;;;;;;;4991673;28;20050;-71
2022/02/05 10:37:32;;;;;;;5.55;2.38;;;;;;;;;;4996210;28;20082;-75
2022/02/05 10:40:12;;;;;;;7.95;1.00;;;;;;;;;;4996320;28;20057;-74
2022/02/05 10:43:03;;;;;;;4.43;1.05;;;;;;;;;;4999761;28;20046;-73
2022/02/05 10:45:42;;;;;;;6.40;1.40;;;;;;;;;;5001773;28;20114;-71
2022/02/05 10:48:16;;;;;;;10.73;1.83;;;;;;;;;;4996368;28;20112;-72
2022/02/05 10:50:43;;;;;;;4.82;1.50;;;;;;;;;;4993606;28;20046;-68
2022/02/05 10:53:26;;;;;;;3.50;1.15;;;;;;;;;;4995906;28;20505;-68
2022/02/05 10:58:44;;;;;;;6.45;1.05;;;;;;;;;;4989348;28;20156;-66
2022/02/05 11:07:03;;;;;;;5.18;1.08;;;;;;;;;;5005846;28;20057;-68
2022/02/05 11:09:29;;;;;;;5.57;1.52;;;;;;;;;;4993461;28;20051;-68
2022/02/05 11:20:06;;;;;;;8.23;0.95;;;;;;;;;;4991299;28;20050;-68
2022/02/05 11:22:43;;;;;;;3.97;0.68;;;;;;;;;;4989329;28;20069;-68
2022/02/05 11:25:10;;;;;;;2.83;1.13;;;;;;;;;;5004747;28;20050;-69
2022/02/05 11:27:44;;;;;;;4.22;1.65;;;;;;;;;;4990992;28;20085;-68
2022/02/05 11:30:31;;;;;;;4.45;1.42;;;;;;;;;;4990370;28;20098;-68
2022/02/05 11:33:02;;;;;;;5.10;1.17;;;;;;;;;;4989473;28;20058;-68
2022/02/05 11:35:48;;;;;;;4.60;1.00;;;;;;;;;;4990709;28;20058;-68
2022/02/05 11:38:23;;;;;;;2.42;0.90;;;;;;;;;;4990281;28;20066;-68
2022/02/05 11:40:54;;;;;;;3.95;0.80;;;;;;;;;;5005237;28;20096;-72
2022/02/05 11:43:24;;;;;;;4.85;0.77;;;;;;;;;;4992528;28;20046;-72
2022/02/05 11:46:12;;;;;;;5.30;0.90;;;;;;;;;;4999175;28;20050;-71
2022/02/05 11:48:41;;;;;;;2.60;0.50;;;;;;;;;;4992937;28;20050;-69
2022/02/05 11:51:12;;;;;;;1.30;0.60;;;;;;;;;;4992751;28;20066;-70
2022/02/05 11:54:00;;;;;;;5.07;0.80;;;;;;;;;;4993334;28;20109;-70
2022/02/05 11:56:49;;;;;;;2.97;0.60;;;;;;;;;;4993280;28;20069;-70
2022/02/05 11:59:20;;;;;;;1.80;0.85;;;;;;;;;;4995501;28;20054;-70
2022/02/05 12:01:47;;;;;;;4.35;1.67;;;;;;;;;;4993713;28;20061;-70
2022/02/05 12:04:23;;;;;;;1.95;0.85;;;;;;;;;;4999930;28;20105;-70
2022/02/05 12:06:59;;;;;;;2.47;1.30;;;;;;;;;;5007701;28;20105;-70
2022/02/05 12:09:50;;;;;;;4.78;1.00;;;;;;;;;;4993337;28;20089;-70
2022/02/05 12:12:23;;;;;;;2.45;0.68;;;;;;;;;;4991929;28;20532;-72
2022/02/05 12:15:08;;;;;;;2.40;0.70;;;;;;;;;;4990926;28;20042;-69
2022/02/05 12:18:05;;;;;;;3.55;1.35;;;;;;;;;;4992150;28;20077;-70
2022/02/05 12:20:51;;;;;;;10.02;1.88;;;;;;;;;;4991985;28;20045;-66
2022/02/05 12:25:56;;;;;;;4.95;0.75;;;;;;;;;;4990517;28;20050;-71
2022/02/05 12:28:33;;;;;;;4.82;0.80;;;;;;;;;;4990712;28;20051;-68
2022/02/05 12:31:01;;;;;;;5.45;0.80;;;;;;;;;;5006362;28;20116;-70
2022/02/05 12:33:45;;;;;;;8.50;0.88;;;;;;;;;;4992094;28;20050;-69
2022/02/05 12:36:13;;;;;;;2.30;0.68;;;;;;;;;;4992045;28;20042;-68
2022/02/05 12:38:41;;;;;;;5.85;1.10;;;;;;;;;;4991828;28;20620;-67
2022/02/05 12:41:09;;;;;;;3.53;1.00;;;;;;;;;;4992562;28;20050;-69
2022/02/05 12:43:49;;;;;;;2.17;0.80;;;;;;;;;;5008792;28;20039;-68
2022/02/05 12:46:17;;;;;;;4.45;1.45;;;;;;;;;;4991847;28;20105;-68
2022/02/05 12:48:44;;;;;;;7.60;1.38;;;;;;;;;;4992257;28;20088;-69
2022/02/05 12:51:11;;;;;;;2.97;1.20;;;;;;;;;;4991556;28;20513;-69
2022/02/05 12:53:40;;;;;;;2.35;0.90;;;;;;;;;;4990251;28;20059;-72
2022/02/05 12:56:18;;;;;;;6.45;1.48;;;;;;;;;;4993977;28;20047;-69
2022/02/05 12:59:04;;;;;;;2.35;0.60;;;;;;;;;;5006377;28;20452;-70
2022/02/05 13:01:32;;;;;;;2.53;1.10;;;;;;;;;;4989227;28;20109;-70
2022/02/05 13:04:10;;;;;;;2.03;0.73;;;;;;;;;;4991547;28;20057;-67
2022/02/05 13:06:37;;;;;;;4.25;1.00;;;;;;;;;;4992522;28;20080;-72
2022/02/05 13:09:22;;;;;;;3.97;0.88;;;;;;;;;;4997886;28;20436;-71
2022/02/05 13:11:59;;;;;;;4.30;0.80;;;;;;;;;;5002435;28;20129;-66
2022/02/05 13:14:40;;;;;;;4.40;1.10;;;;;;;;;;4990892;28;20100;-68
2022/02/05 13:17:19;;;;;;;3.63;1.13;;;;;;;;;;4989523;28;20545;-67
2022/02/05 13:25:53;;;;;;;3.50;0.90;;;;;;;;;;4991158;28;20046;-68
2022/02/05 13:36:43;;;;;;;2.45;0.63;;;;;;;;;;4989333;28;20089;-67
2022/02/05 13:42:10;;;;;;;2.90;0.70;;;;;;;;;;4989859;28;20042;-67
2022/02/05 13:45:09;;;;;;;4.82;0.70;;;;;;;;;;4991140;28;20429;-68
2022/02/05 13:47:48;;;;;;;2.00;0.65;;;;;;;;;;4989036;28;20050;-68
2022/02/05 13:50:19;;;;;;;6.18;1.00;;;;;;;;;;4990580;28;20050;-67
2022/02/05 13:52:53;;;;;;;2.78;0.88;;;;;;;;;;5002032;28;20077;-67
2022/02/05 13:55:49;;;;;;;5.85;0.60;;;;;;;;;;4988707;28;20502;-68
2022/02/05 13:58:15;;;;;;;7.55;1.92;;;;;;;;;;4988968;28;20051;-67
2022/02/05 14:00:42;;;;;;;2.78;0.93;;;;;;;;;;4991129;28;20050;-67
2022/02/05 14:03:09;;;;;;;3.72;1.63;;;;;;;;;;4990149;28;20511;-68
2022/02/05 14:05:45;;;;;;;2.17;0.75;;;;;;;;;;4990728;28;20129;-67
2022/02/05 14:08:24;;;;;;;2.45;0.75;;;;;;;;;;4986310;28;20564;-68
2022/02/05 14:11:05;;;;;;;4.18;0.85;;;;;;;;;;4990926;28;20057;-68
2022/02/05 14:13:32;;;;;;;2.92;1.05;;;;;;;;;;4990556;28;20046;-71
2022/02/05 14:16:01;;;;;;;2.20;0.77;;;;;;;;;;4990492;28;20082;-68
2022/02/05 14:18:30;;;;;;;3.40;0.70;;;;;;;;;;4990507;28;20105;-69
2022/02/05 14:21:01;;;;;;;2.67;0.60;;;;;;;;;;4993874;28;20105;-68
2022/02/05 14:23:31;;;;;;;3.05;0.70;;;;;;;;;;4983849;28;20097;-73
2022/02/05 14:26:12;;;;;;;4.85;0.85;;;;;;;;;;5001795;28;20050;-70
2022/02/05 14:28:46;;;;;;;4.15;1.30;;;;;;;;;;4988388;28;20054;-69
2022/02/05 14:36:42;;;;;;;2.75;0.90;;;;;;;;;;4996812;28;20046;-68
2022/02/05 14:41:57;;;;;;;3.28;0.98;;;;;;;;;;4990298;28;20109;-71
2022/02/05 14:44:24;;;;;;;2.10;0.98;;;;;;;;;;4990303;28;20050;-71
2022/02/05 14:46:51;;;;;;;6.05;1.20;;;;;;;;;;5006624;28;20050;-73
2022/02/05 14:49:18;;;;;;;2.22;0.70;;;;;;;;;;5008286;28;20113;-73
2022/02/05 14:51:45;;;;;;;2.35;1.05;;;;;;;;;;4993305;28;20575;-71
2022/02/05 14:54:11;;;;;;;5.35;1.10;;;;;;;;;;4992944;28;20501;-72
2022/02/05 14:56:38;;;;;;;2.72;1.20;;;;;;;;;;5008550;28;20202;-73
2022/02/05 14:59:06;;;;;;;5.20;1.35;;;;;;;;;;5021850;23;20398;-69
2022/02/05 15:01:36;;;;;;;3.30;1.15;;;;;;;;;;4980510;28;20096;-72
2022/02/05 15:04:03;;;;;;;4.40;1.58;;;;;;;;;;4981169;28;20042;-66
2022/02/05 15:06:32;;;;;;;4.35;1.35;;;;;;;;;;4980911;28;20062;-66
2022/02/05 15:09:00;;;;;;;3.35;1.15;;;;;;;;;;4980429;28;20461;-66
2022/02/05 15:11:28;;;;;;;5.07;1.20;;;;;;;;;;4974593;28;20051;-69
2022/02/05 15:13:57;;;;;;;1.85;0.90;;;;;;;;;;4979158;28;20485;-69
2022/02/05 15:16:24;;;;;;;2.88;1.08;;;;;;;;;;4984270;28;20051;-65
2022/02/05 15:18:53;;;;;;;4.03;1.10;;;;;;;;;;4980245;28;20050;-66
2022/02/05 15:21:21;;;;;;;3.22;0.60;;;;;;;;;;4981398;28;20121;-68
2022/02/05 15:23:48;;;;;;;2.78;0.70;;;;;;;;;;4979426;28;20047;-69
2022/02/05 15:26:16;;;;;;;2.25;0.85;;;;;;;;;;4980873;28;20050;-67
2022/02/05 15:28:44;;;;;;;3.13;0.95;;;;;;;;;;4980390;28;20469;-64
2022/02/05 15:31:11;;;;;;;3.92;0.90;;;;;;;;;;4977278;28;20560;-64
2022/02/05 15:33:42;;;;;;;3.33;0.82;;;;;;;;;;4955650;28;20065;-65
2022/02/05 15:36:16;;;;;;;3.35;1.70;;;;;;;;;;4977443;28;20094;-64
2022/02/05 15:39:12;;;;;;;4.53;1.20;;;;;;;;;;4979723;28;20105;-65
2022/02/05 15:44:33;;;;;;;;;;;;;;;;;;4979702;28;20050;-67
2022/02/05 15:47:00;;;;;;;4.20;0.98;;;;;;;;;;4977874;28;20640;-67
2022/02/05 15:49:27;;;;;;;1.77;0.60;;;;;;;;;;4996727;28;20058;-67
2022/02/05 15:51:54;;;;;;;2.00;1.23;;;;;;;;;;4978251;28;20055;-67
2022/02/05 15:54:24;;;;;;;3.90;0.80;;;;;;;;;;4979088;28;20081;-67
2022/02/05 15:59:48;;;;;;;3.72;1.17;;;;;;;;;;4977070;28;20496;-67
2022/02/05 16:02:14;;;;;;;2.60;0.70;;;;;;;;;;4977224;28;20050;-67
2022/02/05 16:04:40;;;;;;;2.58;0.80;;;;;;;;;;4982512;28;20473;-67
2022/02/05 16:07:07;;;;;;;5.97;0.70;;;;;;;;;;4977143;28;20101;-66
2022/02/05 16:09:34;;;;;;;4.30;1.00;;;;;;;;;;4980533;28;20057;-66
2022/02/05 16:12:07;;;;;;;5.20;1.65;;;;;;;;;;4977221;28;20398;-65
2022/02/05 16:14:34;;;;;;;4.22;1.50;;;;;;;;;;4988084;28;20120;-66
2022/02/05 16:17:02;;;;;;;2.70;1.25;;;;;;;;;;4980068;28;20058;-66
2022/02/05 16:19:30;;;;;;;2.42;1.15;;;;;;;;;;4980680;28;20085;-65
2022/02/05 16:21:56;;;;;;;4.55;1.80;;;;;;;;;;4977270;28;20112;-66
2022/02/05 16:24:23;;;;;;;3.65;1.30;;;;;;;;;;4977991;28;20051;-65
2022/02/05 16:26:50;;;;;;;3.33;1.15;;;;;;;;;;4986243;28;20069;-65
2022/02/05 16:29:19;;;;;;;3.30;1.45;;;;;;;;;;4990627;28;20109;-64
2022/02/05 16:31:48;;;;;;;3.45;1.23;;;;;;;;;;4992014;28;20046;-64
2022/02/05 16:34:17;;;;;;;5.63;1.70;;;;;;;;;;4997056;28;20055;-64
2022/02/05 16:36:47;;;;;;;5.05;1.13;;;;;;;;;;4993941;28;20045;-65
2022/02/05 16:39:19;;;;;;;3.65;2.05;;;;;;;;;;4993561;28;20341;-65
2022/02/05 16:41:46;;;;;;;10.50;6.20;;;;;;;;;;4991904;28;20046;-66
2022/02/05 16:44:13;;;;;;;18.00;10.50;;;;;;;;;;4989277;28;20051;-65
2022/02/05 16:46:41;;;;;;;7.53;4.85;;;;;;;;;;4988382;28;20069;-66
2022/02/05 16:49:08;;;;;;;3.03;1.33;;;;;;;;;;4988378;28;20127;-66
2022/02/05 16:51:35;;;;;;;10.45;2.30;;;;;;;;;;5001511;28;20078;-67
2022/02/05 16:54:03;;;;;;;4.32;1.55;;;;;;;;;;4998376;28;20047;-68
2022/02/05 16:56:33;;;;;;;5.00;1.42;;;;;;;;;;4998415;28;20090;-67
2022/02/05 16:59:01;;;;;;;2.88;1.05;;;;;;;;;;4998946;28;20058;-67
2022/02/05 17:01:29;;;;;;;2.67;1.02;;;;;;;;;;4997524;28;20054;-67
2022/02/05 17:03:57;;;;;;;5.32;1.40;;;;;;;;;;4991771;28;20124;-68
2022/02/05 17:06:27;;;;;;;4.28;1.50;;;;;;;;;;4977543;28;20394;-68
2022/02/05 17:08:56;;;;;;;1.95;1.13;;;;;;;;;;4979034;28;20487;-67
2022/02/05 17:11:23;;;;;;;6.45;1.20;;;;;;;;;;4978993;28;20053;-68
2022/02/05 17:13:53;;;;;;;4.55;1.88;;;;;;;;;;4976170;28;20082;-67
2022/02/05 17:16:20;;;;;;;4.45;1.38;;;;;;;;;;4980855;28;20125;-68
2022/02/05 17:18:47;;;;;;;2.75;1.20;;;;;;;;;;4977117;28;20118;-67
2022/02/05 17:21:15;;;;;;;3.10;1.20;;;;;;;;;;4979951;28;20058;-67
2022/02/05 17:23:43;;;;;;;3.22;1.13;;;;;;;;;;4976712;28;20050;-67
2022/02/05 17:26:15;;;;;;;5.00;1.20;;;;;;;;;;4979727;28;20042;-67
2022/02/05 17:28:47;;;;;;;1.50;0.85;;;;;;;;;;4976840;28;20066;-67
2022/02/05 17:31:17;;;;;;;4.90;1.42;;;;;;;;;;4975690;28;20407;-67
2022/02/05 17:33:44;;;;;;;4.20;1.20;;;;;;;;;;4979987;28;20101;-68
2022/02/05 17:36:18;;;;;;;2.92;1.10;;;;;;;;;;4975881;28;20102;-67
2022/02/05 17:38:45;;;;;;;3.55;1.50;;;;;;;;;;4980887;28;20097;-67
2022/02/05 17:41:12;;;;;;;5.22;1.83;;;;;;;;;;4981159;28;20051;-67
2022/02/05 17:43:39;;;;;;;4.10;1.77;;;;;;;;;;4979053;28;20105;-69
2022/02/05 17:46:06;;;;;;;4.10;1.45;;;;;;;;;;4976251;28;20055;-67
2022/02/05 17:48:33;;;;;;;8.38;3.40;;;;;;;;;;4976707;28;20133;-67
2022/02/05 17:51:03;;;;;;;10.27;2.38;;;;;;;;;;4977345;28;20050;-69
2022/02/05 17:53:29;;;;;;;5.80;2.30;;;;;;;;;;4975169;28;20070;-68
2022/02/05 17:55:56;;;;;;;6.60;2.05;;;;;;;;;;4978207;28;20152;-68
2022/02/05 17:58:25;;;;;;;4.68;2.35;;;;;;;;;;4978423;28;20042;-70
2022/02/05 18:00:52;;;;;;;5.10;2.58;;;;;;;;;;4977079;28;20082;-68